sensor_id;sensor_type;location;lat;lon;timestamp;P1;durP1;ratioP1;P2;durP2;ratioP2
10403;SDS011;5248;47.374;8.486;2022-08-21T00:00:43;2.73;;;2.63;;
10403;SDS011;5248;47.374;8.486;2022-08-21T00:03:10;2.90;;;2.23;;
10403;SDS011;5248;47.374;8.486;2022-08-21T00:05:39;2.60;;;2.40;;
10403;SDS011;5248;47.374;8.486;2022-08-21T00:08:07;2.83;;;2.50;;
10403;SDS011;5248;47.374;8.486;2022-08-21T00:10:35;3.60;;;2.42;;
10403;SDS011;5248;47.374;8.486;2022-08-21T00:13:04;2.63;;;2.43;;
10403;SDS011;5248;47.374;8.486;2022-08-21T00:15:32;2.73;;;2.27;;
10403;SDS011;5248;47.374;8.486;2022-08-21T00:18:00;2.60;;;2.40;;
10403;SDS011;5248;47.374;8.486;2022-08-21T00:20:28;2.70;;;2.50;;
10403;SDS011;5248;47.374;8.486;2022-08-21T00:22:55;6.30;;;2.58;;
10403;SDS011;5248;47.374;8.486;2022-08-21T00:25:21;3.63;;;2.85;;
10403;SDS011;5248;47.374;8.486;2022-08-21T00:27:48;3.05;;;2.85;;
10403;SDS011;5248;47.374;8.486;2022-08-21T00:30:17;2.78;;;2.67;;
10403;SDS011;5248;47.374;8.486;2022-08-21T00:32:44;4.53;;;3.28;;
10403;SDS011;5248;47.374;8.486;2022-08-21T00:35:12;4.28;;;3.80;;
10403;SDS011;5248;47.374;8.486;2022-08-21T00:37:42;4.13;;;3.72;;
10403;SDS011;5248;47.374;8.486;2022-08-21T00:40:10;4.93;;;4.57;;
10403;SDS011;5248;47.374;8.486;2022-08-21T00:42:39;5.97;;;4.28;;
10403;SDS011;5248;47.374;8.486;2022-08-21T00:45:06;6.33;;;4.50;;
10403;SDS011;5248;47.374;8.486;2022-08-21T00:47:35;4.43;;;4.00;;
10403;SDS011;5248;47.374;8.486;2022-08-21T00:50:02;4.53;;;3.78;;
10403;SDS011;5248;47.374;8.486;2022-08-21T00:52:30;5.10;;;4.32;;
10403;SDS011;5248;47.374;8.486;2022-08-21T00:54:58;4.78;;;4.45;;
10403;SDS011;5248;47.374;8.486;2022-08-21T00:57:26;6.03;;;4.47;;
10403;SDS011;5248;47.374;8.486;2022-08-21T00:59:57;4.30;;;3.85;;
10403;SDS011;5248;47.374;8.486;2022-08-21T01:02:25;4.32;;;4.03;;
10403;SDS011;5248;47.374;8.486;2022-08-21T01:04:53;4.25;;;3.25;;
10403;SDS011;5248;47.374;8.486;2022-08-21T01:07:20;4.45;;;3.60;;
10403;SDS011;5248;47.374;8.486;2022-08-21T01:09:47;4.45;;;4.05;;
10403;SDS011;5248;47.374;8.486;2022-08-21T01:12:14;3.55;;;3.35;;
10403;SDS011;5248;47.374;8.486;2022-08-21T01:14:42;3.10;;;2.90;;
10403;SDS011;5248;47.374;8.486;2022-08-21T01:17:10;4.25;;;3.10;;
10403;SDS011;5248;47.374;8.486;2022-08-21T01:19:38;3.92;;;2.90;;
10403;SDS011;5248;47.374;8.486;2022-08-21T01:22:07;3.53;;;3.08;;
10403;SDS011;5248;47.374;8.486;2022-08-21T01:24:33;3.50;;;2.88;;
10403;SDS011;5248;47.374;8.486;2022-08-21T01:27:00;3.10;;;2.80;;
10403;SDS011;5248;47.374;8.486;2022-08-21T01:29:29;3.50;;;3.20;;
10403;SDS011;5248;47.374;8.486;2022-08-21T01:32:00;3.47;;;3.17;;
10403;SDS011;5248;47.374;8.486;2022-08-21T01:34:30;3.10;;;2.90;;
10403;SDS011;5248;47.374;8.486;2022-08-21T01:36:57;3.63;;;2.80;;
10403;SDS011;5248;47.374;8.486;2022-08-21T01:39:26;4.28;;;2.67;;
10403;SDS011;5248;47.374;8.486;2022-08-21T01:41:52;3.30;;;3.10;;
10403;SDS011;5248;47.374;8.486;2022-08-21T01:44:20;3.42;;;3.22;;
10403;SDS011;5248;47.374;8.486;2022-08-21T01:46:48;4.63;;;3.97;;
10403;SDS011;5248;47.374;8.486;2022-08-21T01:49:16;4.45;;;4.05;;
10403;SDS011;5248;47.374;8.486;2022-08-21T01:51:43;4.13;;;3.83;;
10403;SDS011;5248;47.374;8.486;2022-08-21T01:54:10;5.80;;;5.32;;
10403;SDS011;5248;47.374;8.486;2022-08-21T01:56:39;4.90;;;4.50;;
10403;SDS011;5248;47.374;8.486;2022-08-21T01:59:08;5.05;;;4.38;;
10403;SDS011;5248;47.374;8.486;2022-08-21T02:01:35;5.57;;;5.07;;
10403;SDS011;5248;47.374;8.486;2022-08-21T02:04:04;6.40;;;5.70;;
10403;SDS011;5248;47.374;8.486;2022-08-21T02:06:32;6.40;;;5.80;;
10403;SDS011;5248;47.374;8.486;2022-08-21T02:08:59;7.15;;;5.50;;
10403;SDS011;5248;47.374;8.486;2022-08-21T02:11:27;6.10;;;5.60;;
10403;SDS011;5248;47.374;8.486;2022-08-21T02:13:55;6.28;;;5.45;;
10403;SDS011;5248;47.374;8.486;2022-08-21T02:16:22;5.75;;;5.13;;
10403;SDS011;5248;47.374;8.486;2022-08-21T02:18:49;7.07;;;6.28;;
10403;SDS011;5248;47.374;8.486;2022-08-21T02:21:16;8.23;;;7.45;;
10403;SDS011;5248;47.374;8.486;2022-08-21T02:23:43;13.25;;;8.38;;
10403;SDS011;5248;47.374;8.486;2022-08-21T02:26:10;11.93;;;10.82;;
10403;SDS011;5248;47.374;8.486;2022-08-21T02:28:37;8.88;;;8.05;;
10403;SDS011;5248;47.374;8.486;2022-08-21T02:31:05;7.90;;;5.30;;
10403;SDS011;5248;47.374;8.486;2022-08-21T02:33:33;5.20;;;4.00;;
10403;SDS011;5248;47.374;8.486;2022-08-21T02:36:00;3.70;;;3.50;;
10403;SDS011;5248;47.374;8.486;2022-08-21T02:38:30;3.67;;;3.42;;
10403;SDS011;5248;47.374;8.486;2022-08-21T02:40:58;4.30;;;4.00;;
10403;SDS011;5248;47.374;8.486;2022-08-21T02:43:25;4.18;;;3.90;;
10403;SDS011;5248;47.374;8.486;2022-08-21T02:45:54;4.22;;;3.92;;
10403;SDS011;5248;47.374;8.486;2022-08-21T02:48:24;3.37;;;3.17;;
10403;SDS011;5248;47.374;8.486;2022-08-21T02:50:54;3.80;;;3.60;;
10403;SDS011;5248;47.374;8.486;2022-08-21T02:53:23;3.42;;;3.22;;
10403;SDS011;5248;47.374;8.486;2022-08-21T02:55:51;3.47;;;3.28;;
10403;SDS011;5248;47.374;8.486;2022-08-21T02:58:20;3.65;;;3.45;;
10403;SDS011;5248;47.374;8.486;2022-08-21T03:00:48;4.00;;;3.70;;
10403;SDS011;5248;47.374;8.486;2022-08-21T03:03:15;4.03;;;3.70;;
10403;SDS011;5248;47.374;8.486;2022-08-21T03:05:43;3.22;;;3.03;;
10403;SDS011;5248;47.374;8.486;2022-08-21T03:08:11;3.00;;;2.80;;
10403;SDS011;5248;47.374;8.486;2022-08-21T03:10:39;3.10;;;2.90;;
10403;SDS011;5248;47.374;8.486;2022-08-21T03:13:07;3.75;;;2.88;;
10403;SDS011;5248;47.374;8.486;2022-08-21T03:15:37;3.38;;;2.67;;
10403;SDS011;5248;47.374;8.486;2022-08-21T03:18:05;3.38;;;2.70;;
10403;SDS011;5248;47.374;8.486;2022-08-21T03:20:32;2.80;;;2.70;;
10403;SDS011;5248;47.374;8.486;2022-08-21T03:23:01;4.15;;;2.70;;
10403;SDS011;5248;47.374;8.486;2022-08-21T03:25:29;2.67;;;2.58;;
10403;SDS011;5248;47.374;8.486;2022-08-21T03:27:57;4.97;;;3.08;;
10403;SDS011;5248;47.374;8.486;2022-08-21T03:30:24;2.90;;;2.70;;
10403;SDS011;5248;47.374;8.486;2022-08-21T03:32:50;3.95;;;2.60;;
10403;SDS011;5248;47.374;8.486;2022-08-21T03:35:17;2.65;;;2.45;;
10403;SDS011;5248;47.374;8.486;2022-08-21T03:37:44;3.03;;;2.75;;
10403;SDS011;5248;47.374;8.486;2022-08-21T03:40:14;2.92;;;2.72;;
10403;SDS011;5248;47.374;8.486;2022-08-21T03:42:42;3.20;;;3.00;;
10403;SDS011;5248;47.374;8.486;2022-08-21T03:45:10;3.22;;;3.00;;
10403;SDS011;5248;47.374;8.486;2022-08-21T03:47:36;3.00;;;2.58;;
10403;SDS011;5248;47.374;8.486;2022-08-21T03:50:03;3.53;;;3.22;;
10403;SDS011;5248;47.374;8.486;2022-08-21T03:52:33;2.75;;;2.65;;
10403;SDS011;5248;47.374;8.486;2022-08-21T03:54:59;3.38;;;3.17;;
10403;SDS011;5248;47.374;8.486;2022-08-21T03:57:27;3.17;;;3.00;;
10403;SDS011;5248;47.374;8.486;2022-08-21T03:59:54;3.60;;;3.40;;
10403;SDS011;5248;47.374;8.486;2022-08-21T04:02:21;3.60;;;3.30;;
10403;SDS011;5248;47.374;8.486;2022-08-21T04:04:48;3.72;;;3.42;;
10403;SDS011;5248;47.374;8.486;2022-08-21T04:07:14;3.67;;;3.47;;
10403;SDS011;5248;47.374;8.486;2022-08-21T04:09:41;3.58;;;3.28;;
10403;SDS011;5248;47.374;8.486;2022-08-21T04:12:07;4.43;;;3.45;;
10403;SDS011;5248;47.374;8.486;2022-08-21T04:14:35;3.45;;;3.25;;
10403;SDS011;5248;47.374;8.486;2022-08-21T04:17:02;4.05;;;3.75;;
10403;SDS011;5248;47.374;8.486;2022-08-21T04:19:29;3.92;;;3.63;;
10403;SDS011;5248;47.374;8.486;2022-08-21T04:21:56;4.45;;;4.15;;
10403;SDS011;5248;47.374;8.486;2022-08-21T04:24:22;4.05;;;3.85;;
10403;SDS011;5248;47.374;8.486;2022-08-21T04:26:49;4.22;;;4.03;;
10403;SDS011;5248;47.374;8.486;2022-08-21T04:29:16;4.45;;;3.88;;
10403;SDS011;5248;47.374;8.486;2022-08-21T04:31:44;4.70;;;4.40;;
10403;SDS011;5248;47.374;8.486;2022-08-21T04:34:10;6.68;;;6.03;;
10403;SDS011;5248;47.374;8.486;2022-08-21T04:36:37;7.38;;;6.78;;
10403;SDS011;5248;47.374;8.486;2022-08-21T04:39:04;6.85;;;6.20;;
10403;SDS011;5248;47.374;8.486;2022-08-21T04:41:30;6.57;;;6.03;;
10403;SDS011;5248;47.374;8.486;2022-08-21T04:43:57;7.82;;;7.13;;
10403;SDS011;5248;47.374;8.486;2022-08-21T04:46:24;6.45;;;5.95;;
10403;SDS011;5248;47.374;8.486;2022-08-21T04:48:52;10.30;;;9.40;;
10403;SDS011;5248;47.374;8.486;2022-08-21T04:51:21;8.30;;;7.47;;
10403;SDS011;5248;47.374;8.486;2022-08-21T04:53:51;8.38;;;7.78;;
10403;SDS011;5248;47.374;8.486;2022-08-21T04:56:20;7.60;;;7.00;;
10403;SDS011;5248;47.374;8.486;2022-08-21T04:58:50;8.05;;;7.35;;
10403;SDS011;5248;47.374;8.486;2022-08-21T05:01:19;8.18;;;7.57;;
10403;SDS011;5248;47.374;8.486;2022-08-21T05:03:49;9.23;;;8.50;;
10403;SDS011;5248;47.374;8.486;2022-08-21T05:06:20;8.32;;;7.72;;
10403;SDS011;5248;47.374;8.486;2022-08-21T05:08:47;8.13;;;7.43;;
10403;SDS011;5248;47.374;8.486;2022-08-21T05:11:15;7.45;;;6.85;;
10403;SDS011;5248;47.374;8.486;2022-08-21T05:13:42;7.88;;;7.18;;
10403;SDS011;5248;47.374;8.486;2022-08-21T05:16:09;7.22;;;6.63;;
10403;SDS011;5248;47.374;8.486;2022-08-21T05:18:35;8.25;;;7.53;;
10403;SDS011;5248;47.374;8.486;2022-08-21T05:21:03;9.15;;;8.35;;
10403;SDS011;5248;47.374;8.486;2022-08-21T05:23:30;12.15;;;11.05;;
10403;SDS011;5248;47.374;8.486;2022-08-21T05:25:57;14.02;;;12.73;;
10403;SDS011;5248;47.374;8.486;2022-08-21T05:28:24;12.90;;;11.75;;
10403;SDS011;5248;47.374;8.486;2022-08-21T05:30:50;14.23;;;12.93;;
10403;SDS011;5248;47.374;8.486;2022-08-21T05:33:17;14.55;;;11.73;;
10403;SDS011;5248;47.374;8.486;2022-08-21T05:35:43;13.55;;;12.13;;
10403;SDS011;5248;47.374;8.486;2022-08-21T05:38:11;14.27;;;12.88;;
10403;SDS011;5248;47.374;8.486;2022-08-21T05:40:38;15.00;;;13.60;;
10403;SDS011;5248;47.374;8.486;2022-08-21T05:43:05;13.95;;;12.75;;
10403;SDS011;5248;47.374;8.486;2022-08-21T05:45:32;14.85;;;13.45;;
10403;SDS011;5248;47.374;8.486;2022-08-21T05:48:05;15.23;;;13.63;;
10403;SDS011;5248;47.374;8.486;2022-08-21T05:50:32;15.18;;;13.60;;
10403;SDS011;5248;47.374;8.486;2022-08-21T05:52:58;14.88;;;13.45;;
10403;SDS011;5248;47.374;8.486;2022-08-21T05:55:26;14.57;;;13.20;;
10403;SDS011;5248;47.374;8.486;2022-08-21T05:57:54;14.23;;;12.82;;
10403;SDS011;5248;47.374;8.486;2022-08-21T06:00:21;13.95;;;12.65;;
10403;SDS011;5248;47.374;8.486;2022-08-21T06:02:48;14.27;;;12.98;;
10403;SDS011;5248;47.374;8.486;2022-08-21T06:05:16;15.55;;;14.00;;
10403;SDS011;5248;47.374;8.486;2022-08-21T06:07:42;14.90;;;13.50;;
10403;SDS011;5248;47.374;8.486;2022-08-21T06:10:09;14.15;;;12.85;;
10403;SDS011;5248;47.374;8.486;2022-08-21T06:12:37;15.15;;;13.73;;
10403;SDS011;5248;47.374;8.486;2022-08-21T06:15:04;11.20;;;10.20;;
10403;SDS011;5248;47.374;8.486;2022-08-21T06:17:32;7.40;;;6.90;;
10403;SDS011;5248;47.374;8.486;2022-08-21T06:19:58;5.97;;;5.57;;
10403;SDS011;5248;47.374;8.486;2022-08-21T06:22:25;5.43;;;4.88;;
10403;SDS011;5248;47.374;8.486;2022-08-21T06:24:52;5.03;;;4.72;;
10403;SDS011;5248;47.374;8.486;2022-08-21T06:27:18;5.35;;;4.95;;
10403;SDS011;5248;47.374;8.486;2022-08-21T06:29:47;5.45;;;5.05;;
10403;SDS011;5248;47.374;8.486;2022-08-21T06:32:14;5.25;;;4.88;;
10403;SDS011;5248;47.374;8.486;2022-08-21T06:34:41;5.00;;;4.65;;
10403;SDS011;5248;47.374;8.486;2022-08-21T06:37:07;4.78;;;4.47;;
10403;SDS011;5248;47.374;8.486;2022-08-21T06:39:35;5.10;;;4.70;;
10403;SDS011;5248;47.374;8.486;2022-08-21T06:42:02;5.40;;;5.00;;
10403;SDS011;5248;47.374;8.486;2022-08-21T06:44:29;5.38;;;4.97;;
10403;SDS011;5248;47.374;8.486;2022-08-21T06:46:58;5.32;;;4.93;;
10403;SDS011;5248;47.374;8.486;2022-08-21T06:49:24;6.82;;;6.03;;
10403;SDS011;5248;47.374;8.486;2022-08-21T06:51:51;6.70;;;6.20;;
10403;SDS011;5248;47.374;8.486;2022-08-21T06:54:18;6.35;;;5.85;;
10403;SDS011;5248;47.374;8.486;2022-08-21T06:56:44;6.30;;;5.80;;
10403;SDS011;5248;47.374;8.486;2022-08-21T06:59:11;7.07;;;5.82;;
10403;SDS011;5248;47.374;8.486;2022-08-21T07:01:38;5.40;;;5.00;;
10403;SDS011;5248;47.374;8.486;2022-08-21T07:04:06;5.07;;;4.78;;
10403;SDS011;5248;47.374;8.486;2022-08-21T07:06:33;5.30;;;4.90;;
10403;SDS011;5248;47.374;8.486;2022-08-21T07:09:00;4.22;;;3.83;;
10403;SDS011;5248;47.374;8.486;2022-08-21T07:11:27;5.32;;;5.00;;
10403;SDS011;5248;47.374;8.486;2022-08-21T07:13:54;5.25;;;4.85;;
10403;SDS011;5248;47.374;8.486;2022-08-21T07:16:21;5.43;;;5.03;;
10403;SDS011;5248;47.374;8.486;2022-08-21T07:18:48;5.70;;;5.20;;
10403;SDS011;5248;47.374;8.486;2022-08-21T07:21:16;4.55;;;4.18;;
10403;SDS011;5248;47.374;8.486;2022-08-21T07:23:45;5.80;;;4.40;;
10403;SDS011;5248;47.374;8.486;2022-08-21T07:26:12;3.92;;;3.70;;
10403;SDS011;5248;47.374;8.486;2022-08-21T07:28:40;4.05;;;3.75;;
10403;SDS011;5248;47.374;8.486;2022-08-21T07:31:08;4.40;;;4.10;;
10403;SDS011;5248;47.374;8.486;2022-08-21T07:33:39;4.95;;;4.65;;
10403;SDS011;5248;47.374;8.486;2022-08-21T07:36:06;4.85;;;4.45;;
10403;SDS011;5248;47.374;8.486;2022-08-21T07:38:34;4.75;;;4.35;;
10403;SDS011;5248;47.374;8.486;2022-08-21T07:41:05;4.07;;;3.72;;
10403;SDS011;5248;47.374;8.486;2022-08-21T07:43:36;3.60;;;3.40;;
10403;SDS011;5248;47.374;8.486;2022-08-21T07:46:04;4.00;;;3.75;;
10403;SDS011;5248;47.374;8.486;2022-08-21T07:48:30;3.60;;;3.28;;
10403;SDS011;5248;47.374;8.486;2022-08-21T07:50:58;3.80;;;3.47;;
10403;SDS011;5248;47.374;8.486;2022-08-21T07:53:26;4.18;;;3.60;;
10403;SDS011;5248;47.374;8.486;2022-08-21T07:55:54;3.50;;;3.20;;
10403;SDS011;5248;47.374;8.486;2022-08-21T07:58:23;4.50;;;4.20;;
10403;SDS011;5248;47.374;8.486;2022-08-21T08:00:49;6.35;;;3.70;;
10403;SDS011;5248;47.374;8.486;2022-08-21T08:03:16;3.80;;;3.60;;
10403;SDS011;5248;47.374;8.486;2022-08-21T08:05:43;3.38;;;3.05;;
10403;SDS011;5248;47.374;8.486;2022-08-21T08:08:09;3.70;;;3.40;;
10403;SDS011;5248;47.374;8.486;2022-08-21T08:10:36;2.63;;;2.53;;
10403;SDS011;5248;47.374;8.486;2022-08-21T08:13:04;3.80;;;3.10;;
10403;SDS011;5248;47.374;8.486;2022-08-21T08:15:31;2.90;;;2.78;;
10403;SDS011;5248;47.374;8.486;2022-08-21T08:17:58;2.50;;;2.33;;
10403;SDS011;5248;47.374;8.486;2022-08-21T08:20:25;2.60;;;2.50;;
10403;SDS011;5248;47.374;8.486;2022-08-21T08:22:52;2.70;;;2.55;;
10403;SDS011;5248;47.374;8.486;2022-08-21T08:25:20;3.67;;;3.45;;
10403;SDS011;5248;47.374;8.486;2022-08-21T08:27:47;3.33;;;3.15;;
10403;SDS011;5248;47.374;8.486;2022-08-21T08:30:16;2.95;;;2.75;;
10403;SDS011;5248;47.374;8.486;2022-08-21T08:32:45;2.20;;;2.10;;
10403;SDS011;5248;47.374;8.486;2022-08-21T08:35:12;2.83;;;2.63;;
10403;SDS011;5248;47.374;8.486;2022-08-21T08:37:39;2.30;;;2.20;;
10403;SDS011;5248;47.374;8.486;2022-08-21T08:40:07;3.28;;;2.00;;
10403;SDS011;5248;47.374;8.486;2022-08-21T08:42:37;2.83;;;2.70;;
10403;SDS011;5248;47.374;8.486;2022-08-21T08:45:05;2.65;;;2.55;;
10403;SDS011;5248;47.374;8.486;2022-08-21T08:47:36;2.80;;;2.70;;
10403;SDS011;5248;47.374;8.486;2022-08-21T08:50:05;2.75;;;2.60;;
10403;SDS011;5248;47.374;8.486;2022-08-21T08:52:35;2.80;;;2.70;;
10403;SDS011;5248;47.374;8.486;2022-08-21T08:55:04;2.25;;;2.15;;
10403;SDS011;5248;47.374;8.486;2022-08-21T08:57:32;2.05;;;1.95;;
10403;SDS011;5248;47.374;8.486;2022-08-21T09:00:03;2.53;;;2.42;;
10403;SDS011;5248;47.374;8.486;2022-08-21T09:02:32;2.40;;;2.30;;
10403;SDS011;5248;47.374;8.486;2022-08-21T09:05:00;3.85;;;2.90;;
10403;SDS011;5248;47.374;8.486;2022-08-21T09:07:30;2.80;;;2.67;;
10403;SDS011;5248;47.374;8.486;2022-08-21T09:10:05;2.17;;;2.08;;
10403;SDS011;5248;47.374;8.486;2022-08-21T09:12:39;2.60;;;2.45;;
10403;SDS011;5248;47.374;8.486;2022-08-21T09:15:15;2.10;;;2.00;;
10403;SDS011;5248;47.374;8.486;2022-08-21T09:17:58;2.00;;;1.90;;
10403;SDS011;5248;47.374;8.486;2022-08-21T09:20:36;2.13;;;2.03;;
10403;SDS011;5248;47.374;8.486;2022-08-21T09:23:08;1.92;;;1.83;;
10403;SDS011;5248;47.374;8.486;2022-08-21T09:25:42;2.33;;;1.80;;
10403;SDS011;5248;47.374;8.486;2022-08-21T09:28:13;2.33;;;2.22;;
10403;SDS011;5248;47.374;8.486;2022-08-21T09:30:40;1.98;;;1.88;;
10403;SDS011;5248;47.374;8.486;2022-08-21T09:33:07;1.85;;;1.75;;
10403;SDS011;5248;47.374;8.486;2022-08-21T09:35:35;1.73;;;1.52;;
10403;SDS011;5248;47.374;8.486;2022-08-21T09:38:02;2.47;;;2.38;;
10403;SDS011;5248;47.374;8.486;2022-08-21T09:40:33;1.70;;;1.60;;
10403;SDS011;5248;47.374;8.486;2022-08-21T09:43:04;2.03;;;1.92;;
10403;SDS011;5248;47.374;8.486;2022-08-21T09:45:32;2.35;;;1.90;;
10403;SDS011;5248;47.374;8.486;2022-08-21T09:48:09;2.00;;;1.90;;
10403;SDS011;5248;47.374;8.486;2022-08-21T09:50:39;1.70;;;1.60;;
10403;SDS011;5248;47.374;8.486;2022-08-21T09:53:13;2.38;;;2.10;;
10403;SDS011;5248;47.374;8.486;2022-08-21T09:55:47;1.98;;;1.88;;
10403;SDS011;5248;47.374;8.486;2022-08-21T09:58:33;2.25;;;2.05;;
10403;SDS011;5248;47.374;8.486;2022-08-21T10:01:02;1.77;;;1.67;;
10403;SDS011;5248;47.374;8.486;2022-08-21T10:03:30;1.67;;;1.58;;
10403;SDS011;5248;47.374;8.486;2022-08-21T10:05:59;2.83;;;1.98;;
10403;SDS011;5248;47.374;8.486;2022-08-21T10:08:30;2.13;;;2.03;;
10403;SDS011;5248;47.374;8.486;2022-08-21T10:11:01;2.22;;;2.13;;
10403;SDS011;5248;47.374;8.486;2022-08-21T10:13:32;1.75;;;1.70;;
10403;SDS011;5248;47.374;8.486;2022-08-21T10:16:14;1.92;;;1.83;;
10403;SDS011;5248;47.374;8.486;2022-08-21T10:18:47;2.00;;;1.90;;
10403;SDS011;5248;47.374;8.486;2022-08-21T10:21:31;1.85;;;1.40;;
10403;SDS011;5248;47.374;8.486;2022-08-21T10:24:03;2.15;;;2.05;;
10403;SDS011;5248;47.374;8.486;2022-08-21T10:26:40;2.15;;;1.83;;
10403;SDS011;5248;47.374;8.486;2022-08-21T10:29:14;2.28;;;1.70;;
10403;SDS011;5248;47.374;8.486;2022-08-21T10:31:51;1.67;;;1.60;;
10403;SDS011;5248;47.374;8.486;2022-08-21T10:34:31;1.70;;;1.60;;
10403;SDS011;5248;47.374;8.486;2022-08-21T10:37:13;1.67;;;1.33;;
10403;SDS011;5248;47.374;8.486;2022-08-21T10:39:47;1.45;;;1.42;;
10403;SDS011;5248;47.374;8.486;2022-08-21T10:42:31;1.73;;;1.55;;
10403;SDS011;5248;47.374;8.486;2022-08-21T10:45:06;1.20;;;1.20;;
10403;SDS011;5248;47.374;8.486;2022-08-21T10:47:39;1.27;;;1.27;;
10403;SDS011;5248;47.374;8.486;2022-08-21T10:50:09;1.20;;;1.20;;
10403;SDS011;5248;47.374;8.486;2022-08-21T10:52:49;1.30;;;1.20;;
10403;SDS011;5248;47.374;8.486;2022-08-21T10:55:21;1.33;;;1.27;;
10403;SDS011;5248;47.374;8.486;2022-08-21T10:57:49;1.70;;;1.60;;
10403;SDS011;5248;47.374;8.486;2022-08-21T11:00:18;1.50;;;1.40;;
10403;SDS011;5248;47.374;8.486;2022-08-21T11:02:49;1.80;;;1.70;;
10403;SDS011;5248;47.374;8.486;2022-08-21T11:05:33;2.60;;;1.50;;
10403;SDS011;5248;47.374;8.486;2022-08-21T11:08:03;2.03;;;1.90;;
10403;SDS011;5248;47.374;8.486;2022-08-21T11:10:34;1.20;;;1.20;;
10403;SDS011;5248;47.374;8.486;2022-08-21T11:13:05;1.27;;;1.27;;
10403;SDS011;5248;47.374;8.486;2022-08-21T11:15:37;1.80;;;1.70;;
10403;SDS011;5248;47.374;8.486;2022-08-21T11:18:15;3.63;;;1.73;;
10403;SDS011;5248;47.374;8.486;2022-08-21T11:20:46;3.58;;;1.83;;
10403;SDS011;5248;47.374;8.486;2022-08-21T11:23:18;1.75;;;1.40;;
10403;SDS011;5248;47.374;8.486;2022-08-21T11:25:49;1.70;;;1.60;;
10403;SDS011;5248;47.374;8.486;2022-08-21T11:28:20;2.95;;;1.45;;
10403;SDS011;5248;47.374;8.486;2022-08-21T11:30:52;1.58;;;1.48;;
10403;SDS011;5248;47.374;8.486;2022-08-21T11:33:29;1.63;;;1.52;;
10403;SDS011;5248;47.374;8.486;2022-08-21T11:36:02;1.55;;;1.40;;
10403;SDS011;5248;47.374;8.486;2022-08-21T11:38:38;1.70;;;1.60;;
10403;SDS011;5248;47.374;8.486;2022-08-21T11:41:17;1.58;;;1.48;;
10403;SDS011;5248;47.374;8.486;2022-08-21T11:43:52;1.55;;;1.45;;
10403;SDS011;5248;47.374;8.486;2022-08-21T11:46:25;1.30;;;1.20;;
10403;SDS011;5248;47.374;8.486;2022-08-21T11:48:59;1.60;;;1.50;;
10403;SDS011;5248;47.374;8.486;2022-08-21T11:51:33;1.38;;;1.33;;
10403;SDS011;5248;47.374;8.486;2022-08-21T11:54:05;2.33;;;1.38;;
10403;SDS011;5248;47.374;8.486;2022-08-21T11:56:41;1.67;;;1.55;;
10403;SDS011;5248;47.374;8.486;2022-08-21T11:59:11;1.40;;;1.30;;
10403;SDS011;5248;47.374;8.486;2022-08-21T12:01:42;1.67;;;1.42;;
10403;SDS011;5248;47.374;8.486;2022-08-21T12:04:16;2.00;;;1.50;;
10403;SDS011;5248;47.374;8.486;2022-08-21T12:06:44;1.52;;;1.42;;
10403;SDS011;5248;47.374;8.486;2022-08-21T12:09:28;2.30;;;1.33;;
10403;SDS011;5248;47.374;8.486;2022-08-21T12:12:00;1.42;;;1.33;;
10403;SDS011;5248;47.374;8.486;2022-08-21T12:14:35;1.45;;;1.35;;
10403;SDS011;5248;47.374;8.486;2022-08-21T12:17:03;1.30;;;1.20;;
10403;SDS011;5248;47.374;8.486;2022-08-21T12:19:31;2.03;;;1.90;;
10403;SDS011;5248;47.374;8.486;2022-08-21T12:22:07;1.33;;;1.23;;
10403;SDS011;5248;47.374;8.486;2022-08-21T12:24:37;2.17;;;1.50;;
10403;SDS011;5248;47.374;8.486;2022-08-21T12:27:25;1.58;;;1.48;;
10403;SDS011;5248;47.374;8.486;2022-08-21T12:29:55;3.20;;;1.40;;
10403;SDS011;5248;47.374;8.486;2022-08-21T12:32:26;1.95;;;1.20;;
10403;SDS011;5248;47.374;8.486;2022-08-21T12:34:55;1.83;;;1.33;;
10403;SDS011;5248;47.374;8.486;2022-08-21T12:37:27;1.80;;;1.30;;
10403;SDS011;5248;47.374;8.486;2022-08-21T12:40:02;1.67;;;1.48;;
10403;SDS011;5248;47.374;8.486;2022-08-21T12:42:31;1.90;;;1.20;;
10403;SDS011;5248;47.374;8.486;2022-08-21T12:45:04;1.60;;;1.02;;
10403;SDS011;5248;47.374;8.486;2022-08-21T12:47:36;1.10;;;1.10;;
10403;SDS011;5248;47.374;8.486;2022-08-21T12:50:11;1.50;;;1.35;;
10403;SDS011;5248;47.374;8.486;2022-08-21T12:52:40;1.90;;;1.20;;
10403;SDS011;5248;47.374;8.486;2022-08-21T12:55:12;1.55;;;1.20;;
10403;SDS011;5248;47.374;8.486;2022-08-21T12:57:41;1.08;;;1.08;;
10403;SDS011;5248;47.374;8.486;2022-08-21T13:00:09;3.70;;;1.33;;
10403;SDS011;5248;47.374;8.486;2022-08-21T13:02:42;1.13;;;1.02;;
10403;SDS011;5248;47.374;8.486;2022-08-21T13:05:13;0.95;;;0.95;;
10403;SDS011;5248;47.374;8.486;2022-08-21T13:07:43;0.73;;;0.73;;
10403;SDS011;5248;47.374;8.486;2022-08-21T13:10:16;1.05;;;0.90;;
10403;SDS011;5248;47.374;8.486;2022-08-21T13:12:47;0.80;;;0.80;;
10403;SDS011;5248;47.374;8.486;2022-08-21T13:15:14;1.13;;;0.75;;
10403;SDS011;5248;47.374;8.486;2022-08-21T13:17:49;0.93;;;0.93;;
10403;SDS011;5248;47.374;8.486;2022-08-21T13:20:19;1.65;;;0.98;;
10403;SDS011;5248;47.374;8.486;2022-08-21T13:22:47;3.45;;;1.50;;
10403;SDS011;5248;47.374;8.486;2022-08-21T13:25:16;1.10;;;1.00;;
10403;SDS011;5248;47.374;8.486;2022-08-21T13:27:44;1.20;;;1.10;;
10403;SDS011;5248;47.374;8.486;2022-08-21T13:30:23;1.00;;;0.98;;
10403;SDS011;5248;47.374;8.486;2022-08-21T13:32:50;1.70;;;1.23;;
10403;SDS011;5248;47.374;8.486;2022-08-21T13:35:19;1.15;;;1.10;;
10403;SDS011;5248;47.374;8.486;2022-08-21T13:37:48;1.10;;;1.10;;
10403;SDS011;5248;47.374;8.486;2022-08-21T13:40:18;2.75;;;1.30;;
10403;SDS011;5248;47.374;8.486;2022-08-21T13:42:46;1.30;;;1.20;;
10403;SDS011;5248;47.374;8.486;2022-08-21T13:45:16;0.80;;;0.80;;
10403;SDS011;5248;47.374;8.486;2022-08-21T13:47:47;0.60;;;0.60;;
10403;SDS011;5248;47.374;8.486;2022-08-21T13:50:15;0.60;;;0.60;;
10403;SDS011;5248;47.374;8.486;2022-08-21T13:52:59;0.90;;;0.68;;
10403;SDS011;5248;47.374;8.486;2022-08-21T13:55:35;0.60;;;0.60;;
10403;SDS011;5248;47.374;8.486;2022-08-21T13:58:03;0.88;;;0.88;;
10403;SDS011;5248;47.374;8.486;2022-08-21T14:00:31;0.65;;;0.65;;
10403;SDS011;5248;47.374;8.486;2022-08-21T14:03:01;1.52;;;1.10;;
10403;SDS011;5248;47.374;8.486;2022-08-21T14:05:31;0.60;;;0.60;;
10403;SDS011;5248;47.374;8.486;2022-08-21T14:08:02;0.82;;;0.70;;
10403;SDS011;5248;47.374;8.486;2022-08-21T14:10:36;0.52;;;0.52;;
10403;SDS011;5248;47.374;8.486;2022-08-21T14:13:07;2.00;;;1.10;;
10403;SDS011;5248;47.374;8.486;2022-08-21T14:15:54;1.38;;;1.08;;
10403;SDS011;5248;47.374;8.486;2022-08-21T14:18:21;1.13;;;1.02;;
10403;SDS011;5248;47.374;8.486;2022-08-21T14:20:50;1.40;;;1.20;;
10403;SDS011;5248;47.374;8.486;2022-08-21T14:23:23;0.80;;;0.80;;
10403;SDS011;5248;47.374;8.486;2022-08-21T14:25:51;0.80;;;0.80;;
10403;SDS011;5248;47.374;8.486;2022-08-21T14:28:19;1.73;;;0.80;;
10403;SDS011;5248;47.374;8.486;2022-08-21T14:30:50;1.05;;;0.80;;
10403;SDS011;5248;47.374;8.486;2022-08-21T14:33:18;4.03;;;0.90;;
10403;SDS011;5248;47.374;8.486;2022-08-21T14:35:50;0.60;;;0.60;;
10403;SDS011;5248;47.374;8.486;2022-08-21T14:38:18;0.70;;;0.70;;
10403;SDS011;5248;47.374;8.486;2022-08-21T14:40:47;0.77;;;0.70;;
10403;SDS011;5248;47.374;8.486;2022-08-21T14:43:17;0.77;;;0.77;;
10403;SDS011;5248;47.374;8.486;2022-08-21T14:45:45;0.80;;;0.63;;
10403;SDS011;5248;47.374;8.486;2022-08-21T14:48:12;2.03;;;0.60;;
10403;SDS011;5248;47.374;8.486;2022-08-21T14:50:38;0.98;;;0.50;;
10403;SDS011;5248;47.374;8.486;2022-08-21T14:53:06;1.60;;;0.75;;
10403;SDS011;5248;47.374;8.486;2022-08-21T14:55:33;0.47;;;0.47;;
10403;SDS011;5248;47.374;8.486;2022-08-21T14:58:22;0.85;;;0.60;;
10403;SDS011;5248;47.374;8.486;2022-08-21T15:00:49;0.70;;;0.70;;
10403;SDS011;5248;47.374;8.486;2022-08-21T15:03:17;0.70;;;0.70;;
10403;SDS011;5248;47.374;8.486;2022-08-21T15:05:46;0.70;;;0.70;;
10403;SDS011;5248;47.374;8.486;2022-08-21T15:08:13;0.77;;;0.60;;
10403;SDS011;5248;47.374;8.486;2022-08-21T15:10:39;0.70;;;0.70;;
10403;SDS011;5248;47.374;8.486;2022-08-21T15:13:06;0.60;;;0.60;;